Time;durP1;ratioP1;P1;durP2;ratioP2;P2;SDS_P1;SDS_P2;PMS_P1;PMS_P2;Temp;Humidity;BMP_temperature;BMP_pressure;BME280_temperature;BME280_humidity;BME280_pressure;Samples;Min_cycle;Max_cycle;Signal;HPM_P1;HPM_P2
2023/01/28 00:00:30;;;;;;;23.27;12.35;;;;;;;1.86;100.00;102735.31;5084086;28;20099;-82
2023/01/28 00:02:55;;;;;;;23.50;12.20;;;;;;;1.86;100.00;102737.03;5082741;28;20058;-82
2023/01/28 00:05:22;;;;;;;22.92;11.63;;;;;;;1.84;100.00;102729.09;5082865;28;20028;-78
2023/01/28 00:07:49;;;;;;;23.13;12.13;;;;;;;1.80;100.00;102734.00;5083775;28;20035;-81
2023/01/28 00:10:15;;;;;;;23.50;11.95;;;;;;;1.83;100.00;102734.22;5082109;28;20085;-84
2023/01/28 00:12:40;;;;;;;22.60;11.50;;;;;;;1.77;100.00;102739.91;5084582;28;20024;-77
2023/01/28 00:15:07;;;;;;;23.23;11.85;;;;;;;1.78;100.00;102743.41;5081467;28;20177;-82
2023/01/28 00:17:32;;;;;;;23.73;12.30;;;;;;;1.72;100.00;102731.75;5084560;28;20370;-82
2023/01/28 00:19:57;;;;;;;23.80;12.02;;;;;;;1.76;100.00;102747.63;5081713;28;20040;-84
2023/01/28 00:22:23;;;;;;;23.92;12.13;;;;;;;1.74;100.00;102737.09;5081851;28;20125;-84
2023/01/28 00:24:48;;;;;;;23.95;12.13;;;;;;;1.74;100.00;102744.91;5083147;28;20042;-77
2023/01/28 00:27:14;;;;;;;24.45;12.80;;;;;;;1.72;100.00;102747.41;5081443;28;20074;-79
2023/01/28 00:29:39;;;;;;;24.02;12.48;;;;;;;1.75;100.00;102746.72;5084683;28;20522;-84
2023/01/28 00:32:05;;;;;;;23.85;12.30;;;;;;;1.76;100.00;102745.00;5080953;28;20136;-78
2023/01/28 00:34:30;;;;;;;23.67;11.95;;;;;;;1.78;100.00;102748.63;5083664;28;20027;-80
2023/01/28 00:36:58;;;;;;;23.98;11.80;;;;;;;1.74;100.00;102753.63;5082261;28;20028;-76
2023/01/28 00:39:24;;;;;;;23.42;11.38;;;;;;;1.75;100.00;102757.16;5082806;28;20040;-75
2023/01/28 00:41:51;;;;;;;24.17;11.75;;;;;;;1.70;100.00;102755.91;5082868;28;20107;-75
2023/01/28 00:44:17;;;;;;;24.13;12.13;;;;;;;1.68;100.00;102761.03;5082227;28;20109;-76
2023/01/28 00:46:42;;;;;;;24.27;12.00;;;;;;;1.71;100.00;102761.22;5088110;28;20103;-76
2023/01/28 00:49:07;;;;;;;23.65;11.45;;;;;;;1.70;100.00;102754.22;5084977;28;20028;-75
2023/01/28 00:51:33;;;;;;;23.35;10.90;;;;;;;1.72;100.00;102755.22;5088337;28;20097;-77
2023/01/28 00:53:58;;;;;;;24.15;12.18;;;;;;;1.67;100.00;102759.19;5086043;28;20028;-76
2023/01/28 00:56:24;;;;;;;23.98;11.98;;;;;;;1.67;100.00;102759.19;5086753;28;20119;-75
2023/01/28 00:58:49;;;;;;;23.55;11.50;;;;;;;1.69;100.00;102756.69;5087041;28;20390;-76
2023/01/28 01:01:21;;;;;;;24.10;11.73;;;;;;;1.70;100.00;102764.66;5084159;28;20067;-75
2023/01/28 01:03:46;;;;;;;23.67;11.77;;;;;;;1.67;100.00;102753.09;5087255;28;20028;-75
2023/01/28 01:06:14;;;;;;;23.27;11.73;;;;;;;1.71;100.00;102766.44;5085106;28;20521;-76
2023/01/28 01:08:41;;;;;;;24.23;11.70;;;;;;;1.69;100.00;102764.53;5088107;28;20537;-76
2023/01/28 01:11:08;;;;;;;23.33;11.63;;;;;;;1.69;100.00;102767.13;5084464;28;20029;-76
2023/01/28 01:13:34;;;;;;;24.23;12.15;;;;;;;1.67;100.00;102758.31;5087879;28;20042;-76
2023/01/28 01:16:08;;;;;;;23.60;11.68;;;;;;;1.66;100.00;102757.41;5085233;28;20032;-75
2023/01/28 01:18:35;;;;;;;23.75;11.80;;;;;;;1.65;100.00;102758.19;5087675;28;20040;-75
2023/01/28 01:21:01;;;;;;;23.20;11.48;;;;;;;1.62;100.00;102757.97;5085049;28;20044;-76
2023/01/28 01:23:30;;;;;;;22.77;11.38;;;;;;;1.58;100.00;102761.16;5086557;28;20471;-75
2023/01/28 01:25:56;;;;;;;24.27;12.45;;;;;;;1.61;100.00;102766.59;5085479;28;20031;-76
2023/01/28 01:28:21;;;;;;;24.33;12.60;;;;;;;1.56;100.00;102768.88;5085933;28;20020;-75
2023/01/28 01:30:48;;;;;;;23.67;11.55;;;;;;;1.59;100.00;102756.84;5086626;28;20102;-75
2023/01/28 01:33:14;;;;;;;24.05;12.05;;;;;;;1.60;100.00;102754.34;5084500;28;20086;-76
2023/01/28 01:35:39;;;;;;;24.60;12.02;;;;;;;1.60;100.00;102750.84;5087744;28;20038;-76
2023/01/28 01:38:05;;;;;;;23.17;11.15;;;;;;;1.60;100.00;102748.22;5083974;28;20037;-75
2023/01/28 01:40:30;;;;;;;24.05;11.68;;;;;;;1.61;100.00;102750.06;5086713;28;20039;-76
2023/01/28 01:42:56;;;;;;;23.52;12.05;;;;;;;1.56;100.00;102749.72;5083435;28;20029;-75
2023/01/28 01:45:21;;;;;;;23.67;11.90;;;;;;;1.59;100.00;102755.16;5085857;28;20069;-75
2023/01/28 01:47:56;;;;;;;23.83;12.32;;;;;;;1.59;100.00;102762.06;5084714;28;20029;-76
2023/01/28 01:50:28;;;;;;;24.40;12.70;;;;;;;1.58;100.00;102771.59;5085986;28;20025;-75
2023/01/28 01:52:59;;;;;;;24.10;12.55;;;;;;;1.58;100.00;102758.56;5085705;28;20398;-76
2023/01/28 01:55:27;;;;;;;24.17;12.68;;;;;;;1.56;100.00;102766.28;5085078;28;20505;-75
2023/01/28 01:57:55;;;;;;;23.95;11.60;;;;;;;1.55;100.00;102755.72;5082689;28;20024;-75
2023/01/28 02:00:20;;;;;;;24.10;12.18;;;;;;;1.53;100.00;102763.44;5083890;28;20103;-75
2023/01/28 02:02:48;;;;;;;23.88;11.98;;;;;;;1.54;100.00;102766.94;5084264;28;20107;-74
2023/01/28 02:05:18;;;;;;;23.92;12.20;;;;;;;1.54;100.00;102765.28;5085236;28;20513;-75
2023/01/28 02:07:45;;;;;;;25.05;11.65;;;;;;;1.52;100.00;102764.22;5084166;28;20479;-75
2023/01/28 02:10:12;;;;;;;23.88;11.95;;;;;;;1.53;100.00;102766.06;5086883;28;20036;-76
2023/01/28 02:12:46;;;;;;;24.02;12.13;;;;;;;1.51;100.00;102767.63;5083449;28;20032;-83
2023/01/28 02:15:16;;;;;;;24.63;12.68;;;;;;;1.51;100.00;102772.84;5083451;28;20025;-77
2023/01/28 02:17:42;;;;;;;24.33;12.40;;;;;;;1.52;100.00;102773.75;5087095;28;20067;-81
2023/01/28 02:20:18;;;;;;;24.38;12.93;;;;;;;1.51;100.00;102770.22;5083024;28;20491;-83
2023/01/28 02:23:01;;;;;;;24.92;12.38;;;;;;;1.54;100.00;102778.31;5083515;28;20017;-81
2023/01/28 02:25:32;;;;;;;24.80;12.70;;;;;;;1.55;100.00;102771.38;5084221;28;20502;-83
2023/01/28 02:28:06;;;;;;;24.10;12.48;;;;;;;1.49;100.00;102765.72;5085609;28;20024;-82
2023/01/28 02:30:37;;;;;;;23.35;11.95;;;;;;;1.45;100.00;102767.19;5083753;28;20035;-81
2023/01/28 02:33:21;;;;;;;23.55;12.00;;;;;;;1.44;100.00;102769.69;5086032;28;20020;-83
2023/01/28 02:35:52;;;;;;;23.65;11.80;;;;;;;1.42;100.00;102761.75;5083893;28;20031;-83
2023/01/28 02:38:25;;;;;;;23.88;11.85;;;;;;;1.42;100.00;102771.28;5085459;28;20024;-82
2023/01/28 02:41:01;;;;;;;24.17;11.82;;;;;;;1.43;100.00;102767.88;5084381;28;20122;-82
2023/01/28 02:43:35;;;;;;;24.08;12.38;;;;;;;1.43;100.00;102767.88;5084355;28;20374;-82
2023/01/28 02:48:54;;;;;;;24.67;13.23;;;;;;;1.39;100.00;102757.22;5085049;28;20044;-77
2023/01/28 02:51:56;;;;;;;24.60;12.63;;;;;;;1.44;100.00;102759.25;5084863;28;20028;-83
2023/01/28 02:54:33;;;;;;;23.75;11.80;;;;;;;1.40;100.00;102771.19;5079232;28;20059;-82
2023/01/28 02:57:22;;;;;;;23.90;12.00;;;;;;;1.41;100.00;102774.69;5083463;28;20035;-83
2023/01/28 03:00:20;;;;;;;23.98;12.20;;;;;;;1.44;100.00;102774.91;5083497;28;20090;-83
2023/01/28 03:03:16;;;;;;;23.85;11.82;;;;;;;1.42;100.00;102777.41;5074973;28;20072;-82
2023/01/28 03:06:02;;;;;;;24.20;12.20;;;;;;;1.38;100.00;102781.50;5082378;28;20036;-78
2023/01/28 03:36:55;;;;;;;22.85;10.40;;;;;;;1.27;100.00;102791.91;5081828;28;20029;-83
2023/01/28 03:39:26;;;;;;;22.90;10.77;;;;;;;1.29;100.00;102785.13;5083052;28;20081;-83
2023/01/28 03:41:55;;;;;;;22.40;10.80;;;;;;;1.27;100.00;102782.41;5083780;28;20138;-79
2023/01/28 03:47:06;;;;;;;22.75;11.02;;;;;;;1.24;100.00;102790.00;5082085;28;20609;-83
2023/01/28 03:49:31;;;;;;;22.25;10.23;;;;;;;1.26;100.00;102780.59;5084375;28;20024;-82
2023/01/28 03:51:56;;;;;;;22.85;11.25;;;;;;;1.24;100.00;102776.03;5082873;28;20039;-82
2023/01/28 03:54:22;;;;;;;22.52;11.18;;;;;;;1.21;100.00;102787.19;5082894;28;20067;-82
2023/01/28 03:56:48;;;;;;;23.00;11.32;;;;;;;1.21;100.00;102788.06;5084232;28;20047;-83
2023/01/28 03:59:13;;;;;;;22.58;11.07;;;;;;;1.18;100.00;102786.94;5081828;28;20032;-83
2023/01/28 04:01:39;;;;;;;23.55;11.43;;;;;;;1.22;100.00;102794.19;5084770;28;20034;-83
2023/01/28 04:04:04;;;;;;;23.83;12.30;;;;;;;1.16;100.00;102799.84;5081713;28;20115;-82
2023/01/28 04:06:30;;;;;;;24.45;12.65;;;;;;;1.15;100.00;102798.06;5084022;28;20032;-83
2023/01/28 04:08:58;;;;;;;23.50;11.70;;;;;;;1.17;100.00;102800.78;5082827;28;20362;-82
2023/01/28 04:11:24;;;;;;;24.08;12.55;;;;;;;1.14;100.00;102803.16;5082894;28;20025;-83
2023/01/28 04:13:51;;;;;;;24.02;12.73;;;;;;;1.12;100.00;102807.31;5083399;28;20448;-82
2023/01/28 04:16:17;;;;;;;23.45;11.90;;;;;;;1.13;100.00;102811.75;5081607;28;20105;-75
2023/01/28 04:18:44;;;;;;;24.65;12.63;;;;;;;1.15;100.00;102807.53;5084452;28;20024;-76
2023/01/28 04:21:10;;;;;;;24.65;12.57;;;;;;;1.13;100.00;102803.94;5080549;28;20050;-75
2023/01/28 04:23:35;;;;;;;24.85;12.85;;;;;;;1.12;100.00;102818.66;5084145;28;20115;-75
2023/01/28 04:26:00;;;;;;;24.30;12.52;;;;;;;1.09;100.00;102813.19;5081981;28;20089;-75
2023/01/28 04:28:26;;;;;;;24.23;12.43;;;;;;;1.10;100.00;102807.22;5082870;28;20459;-75
2023/01/28 04:30:51;;;;;;;24.42;12.60;;;;;;;1.11;100.00;102814.25;5083431;28;20032;-75
2023/01/28 04:33:17;;;;;;;24.60;12.57;;;;;;;1.08;100.00;102811.41;5081593;28;20035;-75
2023/01/28 04:35:42;;;;;;;25.00;12.57;;;;;;;1.10;100.00;102806.31;5084364;28;20386;-76
2023/01/28 04:38:07;;;;;;;25.42;13.10;;;;;;;1.10;100.00;102808.91;5081074;28;20440;-75
2023/01/28 04:40:33;;;;;;;24.98;12.80;;;;;;;1.06;100.00;102801.66;5083772;28;20111;-77
2023/01/28 04:42:58;;;;;;;24.60;12.32;;;;;;;1.03;100.00;102800.66;5082072;28;20031;-76
2023/01/28 04:45:24;;;;;;;25.02;13.07;;;;;;;1.03;100.00;102800.66;5082638;28;20033;-75
2023/01/28 04:47:49;;;;;;;24.83;12.57;;;;;;;1.03;100.00;102808.47;5083296;28;20467;-75
2023/01/28 04:50:15;;;;;;;25.30;13.20;;;;;;;1.01;100.00;102798.72;5081129;28;20037;-75
2023/01/28 04:52:41;;;;;;;25.73;13.23;;;;;;;1.06;100.00;102799.06;5084431;28;20069;-75
2023/01/28 04:55:08;;;;;;;24.63;12.88;;;;;;;1.00;100.00;102805.59;5080914;28;20035;-75
2023/01/28 04:57:33;;;;;;;24.83;13.00;;;;;;;1.04;100.00;102805.06;5083394;28;20032;-75
2023/01/28 04:59:58;;;;;;;25.65;12.90;;;;;;;1.08;100.00;102810.50;5082326;28;20039;-75
2023/01/28 05:02:24;;;;;;;25.77;13.23;;;;;;;0.98;100.00;102807.22;5082300;28;20367;-75
2023/01/28 05:04:49;;;;;;;25.13;12.80;;;;;;;1.02;100.00;102811.84;5083174;28;20516;-75
2023/01/28 05:07:14;;;;;;;25.73;13.07;;;;;;;1.02;100.00;102811.84;5081138;28;20387;-74
2023/01/28 05:09:40;;;;;;;24.95;12.70;;;;;;;0.99;100.00;102811.63;5084145;28;20385;-76
2023/01/28 05:12:05;;;;;;;25.70;13.23;;;;;;;1.00;100.00;102810.81;5081008;28;20032;-75
2023/01/28 05:14:31;;;;;;;25.20;12.90;;;;;;;0.99;100.00;102811.63;5081933;28;20029;-82
2023/01/28 05:16:56;;;;;;;25.73;13.23;;;;;;;0.99;100.00;102810.72;5082068;28;20029;-82
2023/01/28 05:19:21;;;;;;;25.05;12.80;;;;;;;0.99;100.00;102811.63;5081802;28;20060;-82
2023/01/28 05:21:47;;;;;;;25.23;12.98;;;;;;;1.00;100.00;102820.34;5083390;28;20467;-80
2023/01/28 05:24:13;;;;;;;25.02;13.00;;;;;;;0.96;100.00;102821.81;5080429;28;20112;-82
2023/01/28 05:26:38;;;;;;;24.98;12.85;;;;;;;0.95;100.00;102812.19;5080832;28;20033;-82
2023/01/28 05:29:03;;;;;;;24.67;12.50;;;;;;;0.94;100.00;102818.19;5083239;28;20434;-83
2023/01/28 05:31:29;;;;;;;25.70;13.27;;;;;;;0.88;100.00;102815.13;5083716;28;20036;-83
2023/01/28 05:33:54;;;;;;;25.30;12.98;;;;;;;0.87;100.00;102808.09;5085878;28;20028;-79
2023/01/28 05:36:20;;;;;;;26.33;13.00;;;;;;;0.91;100.00;102809.25;5086533;28;20036;-83
2023/01/28 05:38:45;;;;;;;25.25;13.23;;;;;;;0.88;100.00;102802.09;5084240;28;20459;-82
2023/01/28 05:41:11;;;;;;;24.63;12.60;;;;;;;0.88;100.00;102798.59;5087754;28;20061;-83
2023/01/28 05:43:36;;;;;;;24.83;12.52;;;;;;;0.90;100.00;102810.94;5084143;28;20024;-82
2023/01/28 05:46:02;;;;;;;24.50;12.38;;;;;;;0.84;100.00;102806.16;5086723;28;20029;-82
2023/01/28 05:48:27;;;;;;;25.23;12.80;;;;;;;0.82;100.00;102806.84;5085435;28;20390;-80
2023/01/28 05:50:52;;;;;;;23.42;11.77;;;;;;;0.79;100.00;102804.03;5085130;28;20459;-75
2023/01/28 05:53:18;;;;;;;22.35;10.73;;;;;;;0.77;100.00;102808.19;5086751;28;20467;-76
2023/01/28 05:55:47;;;;;;;22.67;10.88;;;;;;;0.74;100.00;102816.66;5083908;28;20111;-75
2023/01/28 05:58:12;;;;;;;22.90;11.25;;;;;;;0.75;100.00;102813.28;5087115;28;20089;-76
2023/01/28 06:00:38;;;;;;;23.42;11.70;;;;;;;0.75;100.00;102815.91;5083839;28;20033;-76
2023/01/28 06:03:03;;;;;;;23.20;11.32;;;;;;;0.74;100.00;102818.38;5086360;28;20442;-75
2023/01/28 06:05:28;;;;;;;22.50;10.60;;;;;;;0.77;100.00;102827.34;5085003;28;20493;-76
2023/01/28 06:07:54;;;;;;;22.83;10.90;;;;;;;0.71;100.00;102825.97;5085108;28;20029;-75
2023/01/28 06:10:19;;;;;;;21.98;10.70;;;;;;;0.73;100.00;102824.38;5086122;28;20078;-76
2023/01/28 06:12:45;;;;;;;23.55;10.90;;;;;;;0.73;100.00;102821.75;5083841;28;20025;-75
2023/01/28 06:15:10;;;;;;;22.48;10.88;;;;;;;0.71;100.00;102828.56;5087327;28;20036;-75
2023/01/28 06:17:36;;;;;;;22.40;10.43;;;;;;;0.67;100.00;102830.94;5083618;28;20383;-75
2023/01/28 06:20:02;;;;;;;21.90;10.10;;;;;;;0.67;100.00;102828.34;5084369;28;20442;-75
2023/01/28 06:22:27;;;;;;;23.15;11.30;;;;;;;0.67;100.00;102825.72;5084938;28;20024;-76
2023/01/28 06:24:53;;;;;;;22.92;11.07;;;;;;;0.65;100.00;102826.41;5084479;28;20036;-75
2023/01/28 06:27:18;;;;;;;23.30;11.27;;;;;;;0.72;100.00;102826.06;5085926;28;20020;-75
2023/01/28 06:29:43;;;;;;;23.13;11.13;;;;;;;0.69;100.00;102826.75;5083384;28;20052;-76
2023/01/28 06:32:09;;;;;;;23.08;11.50;;;;;;;0.68;100.00;102824.94;5083083;28;20445;-75
2023/01/28 06:34:34;;;;;;;23.33;11.43;;;;;;;0.68;100.00;102830.16;5086034;28;20032;-75
2023/01/28 06:36:59;;;;;;;23.20;11.63;;;;;;;0.68;100.00;102829.22;5084072;28;20028;-76
2023/01/28 06:39:27;;;;;;;23.67;11.85;;;;;;;0.71;100.00;102838.97;5084344;28;20079;-75
2023/01/28 06:41:52;;;;;;;23.38;11.55;;;;;;;0.71;100.00;102823.34;5085122;28;20032;-76
2023/01/28 06:44:17;;;;;;;24.10;11.80;;;;;;;0.72;100.00;102833.00;5082932;28;20040;-75
2023/01/28 06:46:43;;;;;;;24.00;11.95;;;;;;;0.71;100.00;102837.28;5086210;28;20028;-76
2023/01/28 06:49:08;;;;;;;24.25;12.00;;;;;;;0.75;100.00;102835.81;5083010;28;20025;-75
2023/01/28 06:51:33;;;;;;;23.80;11.60;;;;;;;0.72;100.00;102846.00;5085407;28;20031;-75
2023/01/28 06:53:59;;;;;;;23.73;12.23;;;;;;;0.73;100.00;102838.31;5083984;28;20032;-75
2023/01/28 06:56:24;;;;;;;24.75;12.10;;;;;;;0.74;100.00;102841.81;5084334;28;20032;-75
2023/01/28 06:58:50;;;;;;;24.30;11.88;;;;;;;0.69;100.00;102838.88;5084938;28;20035;-75
2023/01/28 07:01:15;;;;;;;24.42;11.93;;;;;;;0.66;100.00;102846.44;5082978;28;20025;-75
2023/01/28 07:03:40;;;;;;;24.80;12.00;;;;;;;0.64;100.00;102835.91;5086143;28;20394;-83
2023/01/28 07:06:06;;;;;;;24.45;12.13;;;;;;;0.67;100.00;102841.34;5082718;28;20577;-83
2023/01/28 07:08:32;;;;;;;24.63;12.57;;;;;;;0.67;100.00;102846.56;5084863;28;20037;-83
2023/01/28 07:10:57;;;;;;;24.85;12.80;;;;;;;0.68;100.00;102850.06;5083780;28;20028;-83
2023/01/28 07:13:23;;;;;;;25.25;12.60;;;;;;;0.67;100.00;102848.22;5083448;28;20031;-83
2023/01/28 07:15:49;;;;;;;24.98;12.73;;;;;;;0.68;100.00;102840.56;5085263;28;20035;-84
2023/01/28 07:18:14;;;;;;;24.50;12.57;;;;;;;0.66;100.00;102854.25;5082048;28;20037;-81
2023/01/28 07:20:40;;;;;;;24.75;12.55;;;;;;;0.65;100.00;102855.94;5085382;28;20371;-83
2023/01/28 07:23:06;;;;;;;24.92;12.45;;;;;;;0.68;100.00;102861.41;5082501;28;20040;-83
2023/01/28 07:25:31;;;;;;;24.17;12.25;;;;;;;0.66;100.00;102868.16;5084370;28;20483;-84
2023/01/28 07:27:57;;;;;;;23.67;12.18;;;;;;;0.67;100.00;102864.78;5083705;28;20035;-80
2023/01/28 07:30:23;;;;;;;25.08;12.38;;;;;;;0.63;100.00;102875.75;5083194;28;20483;-84
2023/01/28 07:32:58;;;;;;;26.17;12.25;;;;;;;0.63;100.00;102873.16;5085059;28;20028;-84
2023/01/28 07:35:25;;;;;;;24.77;12.60;;;;;;;0.66;100.00;102883.78;5083092;28;20491;-75
2023/01/28 07:37:55;;;;;;;25.08;12.75;;;;;;;0.60;100.00;102878.13;5084864;28;20382;-75
2023/01/28 07:40:20;;;;;;;24.25;12.48;;;;;;;0.60;100.00;102883.31;5082756;28;20036;-75
2023/01/28 07:42:46;;;;;;;24.40;12.35;;;;;;;0.60;100.00;102877.22;5084969;28;20032;-82
2023/01/28 07:45:11;;;;;;;24.17;11.80;;;;;;;0.58;100.00;102884.88;5081890;28;20108;-83
2023/01/28 07:47:37;;;;;;;24.88;12.43;;;;;;;0.59;100.00;102881.50;5084621;28;20036;-78
2023/01/28 07:50:02;;;;;;;24.80;12.10;;;;;;;0.61;100.00;102885.16;5082575;28;20466;-85
2023/01/28 07:52:28;;;;;;;24.13;12.00;;;;;;;0.61;100.00;102879.94;5083477;28;20032;-77
2023/01/28 07:54:53;;;;;;;24.70;12.32;;;;;;;0.65;100.00;102887.16;5082811;28;20032;-84
2023/01/28 07:57:22;;;;;;;24.40;11.88;;;;;;;0.64;100.00;102895.78;5081982;28;20057;-77
2023/01/28 07:59:50;;;;;;;24.40;12.10;;;;;;;0.65;100.00;102897.59;5084603;28;20020;-84
2023/01/28 08:02:17;;;;;;;24.42;12.27;;;;;;;0.66;100.00;102902.00;5081517;28;20082;-85
2023/01/28 08:04:43;;;;;;;24.42;12.30;;;;;;;0.66;100.00;102894.22;5084856;28;20048;-82
2023/01/28 08:07:08;;;;;;;24.83;12.20;;;;;;;0.67;100.00;102884.69;5081581;28;20485;-84
2023/01/28 08:09:34;;;;;;;24.17;12.07;;;;;;;0.70;100.00;102892.75;5083907;28;20471;-80
2023/01/28 08:12:02;;;;;;;25.23;12.32;;;;;;;0.69;100.00;102889.22;5082509;28;20059;-83
2023/01/28 08:14:28;;;;;;;25.60;13.10;;;;;;;0.71;100.00;102885.84;5083105;28;20067;-83
2023/01/28 08:16:53;;;;;;;24.55;12.07;;;;;;;0.71;100.00;102906.69;5083413;28;20075;-86
2023/01/28 08:19:20;;;;;;;25.80;12.52;;;;;;;0.73;100.00;102910.28;5081474;28;20029;-80
2023/01/28 08:21:49;;;;;;;24.38;12.07;;;;;;;0.77;100.00;102909.75;5084485;28;20051;-77
2023/01/28 08:24:15;;;;;;;24.33;11.98;;;;;;;0.84;100.00;102922.44;5080998;28;20493;-78
2023/01/28 08:26:41;;;;;;;24.58;12.60;;;;;;;0.84;100.00;102928.56;5081168;28;20033;-82
2023/01/28 08:29:06;;;;;;;25.15;13.50;;;;;;;0.94;100.00;102926.69;5084158;28;20387;-82
2023/01/28 08:31:31;;;;;;;25.73;13.05;;;;;;;0.93;100.00;102917.03;5082021;28;20133;-84
2023/01/28 08:33:57;;;;;;;26.48;13.52;;;;;;;0.94;100.00;102922.38;5082581;28;20037;-85
2023/01/28 08:36:22;;;;;;;25.88;13.18;;;;;;;0.96;100.00;102930.28;5083701;28;20101;-85
2023/01/28 08:38:53;;;;;;;24.90;12.93;;;;;;;1.03;100.00;102927.38;5081148;28;20063;-85
2023/01/28 08:41:20;;;;;;;25.65;12.50;;;;;;;1.04;100.00;102922.28;5084063;28;20060;-85
2023/01/28 08:43:46;;;;;;;25.70;12.85;;;;;;;1.09;100.00;102937.34;5081231;28;20044;-77
2023/01/28 08:46:11;;;;;;;26.42;13.15;;;;;;;1.17;100.00;102941.47;5084356;28;20025;-77
2023/01/28 08:48:37;;;;;;;25.08;12.43;;;;;;;1.24;100.00;102933.31;5081238;28;20544;-85
2023/01/28 08:51:02;;;;;;;24.45;12.20;;;;;;;1.29;100.00;102937.16;5083472;28;20477;-76
2023/01/28 08:53:28;;;;;;;25.85;12.70;;;;;;;1.28;100.00;102940.59;5082454;28;20082;-75
2023/01/28 08:55:54;;;;;;;24.63;12.30;;;;;;;1.25;100.00;102936.81;5081869;28;20030;-75
2023/01/28 08:58:19;;;;;;;24.70;12.13;;;;;;;1.27;100.00;102938.75;5083811;28;20030;-75
2023/01/28 09:00:45;;;;;;;25.35;12.60;;;;;;;1.25;100.00;102950.75;5080578;28;20028;-75
2023/01/28 09:03:11;;;;;;;24.33;11.98;;;;;;;1.21;100.00;102952.22;5080750;28;20536;-75
2023/01/28 09:05:37;;;;;;;24.73;12.75;;;;;;;1.23;100.00;102951.44;5084570;28;20032;-75
2023/01/28 09:08:09;;;;;;;26.92;12.60;;;;;;;1.25;100.00;102950.75;5085694;28;20035;-75
2023/01/28 09:10:36;;;;;;;24.60;12.90;;;;;;;1.34;100.00;102942.72;5087232;28;20036;-75
2023/01/28 09:13:13;;;;;;;24.70;12.32;;;;;;;1.42;100.00;102957.25;5085962;28;20036;-75
2023/01/28 09:15:39;;;;;;;24.90;12.32;;;;;;;1.46;100.00;102947.97;5087918;28;20487;-75
2023/01/28 09:18:05;;;;;;;24.75;12.77;;;;;;;1.52;100.00;102956.25;5085218;28;20028;-75
2023/01/28 09:20:31;;;;;;;25.05;13.10;;;;;;;1.48;100.00;102968.13;5086568;28;20134;-75
2023/01/28 09:22:58;;;;;;;25.75;13.13;;;;;;;1.42;100.00;102969.38;5086130;28;20400;-76
2023/01/28 09:25:23;;;;;;;24.55;12.93;;;;;;;1.34;100.00;102966.19;5087403;28;20050;-76
2023/01/28 09:27:48;;;;;;;25.60;13.45;;;;;;;1.28;100.00;102956.22;5094016;28;20012;-75
2023/01/28 09:30:14;;;;;;;25.23;12.73;;;;;;;1.28;100.00;102956.22;5094940;28;20040;-75
2023/01/28 09:32:39;;;;;;;25.73;13.65;;;;;;;1.28;100.00;102969.25;5095311;28;20032;-77
2023/01/28 09:35:05;;;;;;;26.20;13.57;;;;;;;1.26;100.00;102973.44;5095488;28;20028;-77
2023/01/28 09:37:30;;;;;;;26.33;13.63;;;;;;;1.30;100.00;102980.69;5095152;28;20032;-77
2023/01/28 09:39:56;;;;;;;24.92;13.02;;;;;;;1.33;100.00;102978.31;5094322;28;20410;-76
2023/01/28 09:42:43;;;;;;;24.80;13.05;;;;;;;1.39;100.00;102980.47;5095621;28;20016;-75
2023/01/28 09:45:08;;;;;;;25.85;14.13;;;;;;;1.34;100.00;102992.25;5092325;28;20032;-76
2023/01/28 09:47:58;;;;;;;24.98;13.25;;;;;;;1.41;100.00;102978.88;5094980;28;20054;-75
2023/01/28 09:50:32;;;;;;;24.75;13.40;;;;;;;1.38;100.00;102974.38;5094191;28;20020;-76
2023/01/28 09:53:12;;;;;;;24.83;13.13;;;;;;;1.42;100.00;102980.72;5094597;28;20028;-76
2023/01/28 09:55:43;;;;;;;25.15;13.43;;;;;;;1.39;100.00;102986.59;5083336;28;20054;-76
2023/01/28 09:58:14;;;;;;;24.52;12.80;;;;;;;1.45;100.00;102998.28;5091529;28;20485;-77
2023/01/28 10:01:04;;;;;;;24.83;12.80;;;;;;;1.42;100.00;102985.94;5093032;28;20020;-76
2023/01/28 10:03:45;;;;;;;25.55;13.98;;;;;;;1.50;100.00;102983.88;5094009;28;20020;-76
2023/01/28 10:06:19;;;;;;;25.10;13.63;;;;;;;1.50;100.00;102995.25;5092035;28;20036;-79
2023/01/28 10:08:57;;;;;;;24.23;13.13;;;;;;;1.47;100.00;103004.50;5093402;28;20028;-78
2023/01/28 10:11:59;;;;;;;25.33;13.48;;;;;;;1.51;100.00;103006.56;5086255;28;20509;-78
2023/01/28 10:14:43;;;;;;;25.17;13.35;;;;;;;1.47;100.00;103005.44;5083708;28;20390;-80
2023/01/28 10:17:30;;;;;;;24.27;13.10;;;;;;;1.51;100.00;103002.25;5086235;28;20025;-77
2023/01/28 10:20:04;;;;;;;25.10;13.32;;;;;;;1.51;100.00;103009.19;5084065;28;20066;-80
2023/01/28 10:22:37;;;;;;;24.95;13.40;;;;;;;1.54;100.00;103006.78;5084494;28;20029;-80
2023/01/28 10:25:14;;;;;;;24.23;12.98;;;;;;;1.55;100.00;103016.44;5082677;28;20031;-80
2023/01/28 10:27:40;;;;;;;23.75;12.40;;;;;;;1.62;100.00;103012.63;5085339;28;20434;-78
2023/01/28 10:30:26;;;;;;;23.95;12.85;;;;;;;1.62;100.00;103016.13;5090502;28;20363;-76
2023/01/28 10:32:58;;;;;;;23.55;12.60;;;;;;;1.60;100.00;103015.06;5094322;28;20071;-75
2023/01/28 10:35:24;;;;;;;24.00;12.98;;;;;;;1.62;100.00;103000.47;5093863;28;20020;-76
2023/01/28 10:37:56;;;;;;;24.67;12.85;;;;;;;1.53;100.00;102999.75;5094323;28;20055;-77
2023/01/28 10:40:21;;;;;;;24.67;12.65;;;;;;;1.56;100.00;103002.63;5090215;28;20051;-75
2023/01/28 10:42:47;;;;;;;24.73;13.88;;;;;;;1.59;100.00;102996.72;5093839;28;20462;-74
2023/01/28 10:45:27;;;;;;;35.60;24.23;;;;;;;1.61;100.00;103003.88;5093940;28;20036;-75
2023/01/28 10:48:21;;;;;;;31.27;18.85;;;;;;;1.69;100.00;103000.13;5092816;28;20370;-75
2023/01/28 10:50:52;;;;;;;55.88;41.67;;;;;;;1.63;100.00;103001.38;5092978;28;20066;-76
2023/01/28 10:53:18;;;;;;;29.23;17.30;;;;;;;1.62;100.00;102999.56;5082806;28;20024;-75
2023/01/28 10:55:50;;;;;;;38.15;27.88;;;;;;;1.60;100.00;102996.81;5086373;28;20039;-75
2023/01/28 10:58:20;;;;;;;34.05;24.50;;;;;;;1.58;100.00;102992.31;5082820;28;20039;-76
2023/01/28 11:00:52;;;;;;;29.38;18.92;;;;;;;1.60;100.00;102995.94;5082459;28;20028;-75
2023/01/28 11:03:18;;;;;;;25.42;14.45;;;;;;;1.62;100.00;103002.19;5082587;28;20077;-75
2023/01/28 11:05:51;;;;;;;27.50;17.75;;;;;;;1.60;100.00;103015.06;5086176;28;20036;-75
2023/01/28 11:08:17;;;;;;;25.08;14.40;;;;;;;1.58;100.00;103001.03;5082472;28;20029;-76
2023/01/28 11:10:44;;;;;;;25.27;14.43;;;;;;;1.65;100.00;103005.91;5082393;28;20039;-78
2023/01/28 11:13:28;;;;;;;25.65;14.68;;;;;;;1.69;100.00;102997.53;5085567;28;20028;-83
2023/01/28 11:16:05;;;;;;;24.17;12.10;;;;;;;1.66;100.00;102997.31;5083342;28;20040;-80
2023/01/28 11:18:35;;;;;;;24.40;13.00;;;;;;;1.60;100.00;102990.72;5083912;28;20454;-83
2023/01/28 11:21:03;;;;;;;24.00;12.20;;;;;;;1.66;100.00;102985.94;5083765;28;20040;-83
2023/01/28 11:23:47;;;;;;;24.80;12.70;;;;;;;1.78;100.00;102985.94;5084224;28;20031;-75
2023/01/28 11:26:21;;;;;;;24.63;13.32;;;;;;;1.77;100.00;102986.78;5085745;28;20085;-82
2023/01/28 11:28:47;;;;;;;23.98;11.88;;;;;;;1.81;100.00;102981.88;5082116;28;20099;-75
2023/01/28 11:31:16;;;;;;;24.48;12.23;;;;;;;1.90;100.00;102971.22;5085354;28;20071;-79
2023/01/28 11:33:52;;;;;;;25.77;12.63;;;;;;;2.04;100.00;102954.88;5081980;28;20078;-83
2023/01/28 11:36:20;;;;;;;24.92;13.32;;;;;;;2.17;100.00;102953.16;5081902;28;20024;-83
2023/01/28 11:38:56;;;;;;;24.17;12.32;;;;;;;2.21;100.00;102953.50;5081902;28;20036;-80
2023/01/28 11:41:27;;;;;;;26.08;12.40;;;;;;;2.20;100.00;102958.59;5082638;28;20194;-82
2023/01/28 11:43:54;;;;;;;23.67;11.80;;;;;;;2.32;100.00;102950.75;5084615;28;20024;-82
2023/01/28 11:46:19;;;;;;;25.00;13.05;;;;;;;2.37;100.00;102950.25;5081741;28;20107;-82
2023/01/28 11:48:59;;;;;;;26.52;15.68;;;;;;;2.50;100.00;102944.22;5085138;28;20112;-80